NCAR-RAP Real-Time Weather Data

Output produced by METARs form (12 May 2021  11:44 UTC)
found at http://weather.rap.ucar.edu/surface/
 
KROC 121054Z 29009KT 10SM FEW026 FEW090 BKN180 06/02 A3023 RMK AO2 SLP244 T00560022 $
KROC 120954Z 27007KT 10SM FEW027 FEW080 FEW100 04/02 A3021 RMK AO2 SLP238 T00390017 $
KROC 120854Z 27007KT 10SM FEW060 FEW100 SCT250 04/02 A3020 RMK AO2 SLP231 T00440017 53004 $
KROC 120754Z 27010KT 10SM FEW060 SCT090 SCT250 04/02 A3019 RMK AO2 SLP228 T00440017 $
KROC 120654Z 28009KT 10SM FEW050 SCT075 05/02 A3019 RMK AO2 SLP228 T00500022 $
KROC 120554Z 29009KT 10SM FEW030 SCT042 BKN080 06/02 A3018 RMK AO2 RAB16E41 SLP227 P0001 60001 T00560022 10089 20056 50004 $
KROC 120454Z 30009KT 10SM SCT047 BKN055 OVC085 06/01 A3019 RMK AO2 SLP229 BINOVC T00610011 401220022 $
KROC 120354Z 28009KT 10SM BKN045 OVC080 07/01 A3018 RMK AO2 SLP227 T00670006 $
KROC 120254Z 28008KT 10SM SCT080 06/M01 A3017 RMK AO2 SLP223 T00611006 51015 $
KROC 120154Z 28009KT 10SM BKN044 07/M01 A3016 RMK AO2 SLP220 T00721006 $
KROC 120054Z 30009KT 10SM FEW020 FEW040 07/M01 A3014 RMK AO2 SLP213 T00721006 $
KROC 112354Z 30012G21KT 10SM FEW040 SCT090 SCT180 09/M02 A3013 RMK AO2 SLP207 60000 T00891017 10122 20089 53017 $
KROC 112254Z 26015G20KT 10SM FEW015 BKN040 BKN080 09/02 A3011 RMK AO2 SLP202 T00890017 $
KROC 112154Z 26017G23KT 10SM SCT050 BKN070 BKN090 09/01 A3009 RMK AO2 SLP197 T00940011 $
KROC 112054Z 26018G25KT 10SM BKN055 BKN075 BKN085 11/M01 A3008 RMK AO2 PK WND 28031/2023 SLP191 60000 T01111006 55002 $
KROC 111954Z 29014G29KT 10SM FEW035 SCT055 BKN080 11/M02 A3007 RMK AO2 PK WND 31029/1946 RAB1855E05 SLP190 P0000 T01061017 $
KROC 111854Z COR 28016G25KT 10SM FEW035 SCT065 BKN080 10/M02 A3008 RMK AO2 PK WND 27026/1804 SLP192 T01001017 $